Time;durP1;ratioP1;P1;durP2;ratioP2;P2;SDS_P1;SDS_P2;PMS_P1;PMS_P2;Temp;Humidity;BMP_temperature;BMP_pressure;BME280_temperature;BME280_humidity;BME280_pressure;Samples;Min_cycle;Max_cycle;Signal;HPM_P1;HPM_P2
2021/11/10 00:00:33;;;;;;;16.67;8.10;;;;;;;7.15;81.01;102461.81;4995119;28;20461;-50
2021/11/10 00:03:02;;;;;;;24.10;9.77;;;;;;;7.15;80.65;102462.66;4995533;28;20030;-50
2021/11/10 00:05:30;;;;;;;22.20;10.40;;;;;;;7.15;80.25;102467.25;4995771;28;20053;-47
2021/11/10 00:07:58;;;;;;;24.75;10.90;;;;;;;7.12;80.29;102471.19;4995628;28;20468;-50
2021/11/10 00:10:25;;;;;;;22.08;10.52;;;;;;;7.10;80.60;102458.88;4994630;28;20497;-51
2021/11/10 00:12:55;;;;;;;22.48;10.50;;;;;;;7.08;80.47;102456.38;4994224;28;20053;-48
2021/11/10 00:15:26;;;;;;;23.95;10.27;;;;;;;7.09;80.50;102459.91;4995619;28;20035;-50
2021/11/10 00:17:54;;;;;;;22.65;10.52;;;;;;;7.09;80.94;102458.03;4995290;28;20046;-50
2021/11/10 00:20:21;;;;;;;26.35;11.43;;;;;;;7.10;80.74;102459.72;4994990;28;20134;-53
2021/11/10 00:22:49;;;;;;;22.67;11.25;;;;;;;7.08;80.50;102453.66;4995002;28;20042;-51
2021/11/10 00:25:17;;;;;;;24.88;11.48;;;;;;;7.05;80.85;102440.53;4995114;28;20089;-50
2021/11/10 00:27:44;;;;;;;22.35;10.15;;;;;;;7.05;80.52;102440.53;4994752;28;20061;-50
2021/11/10 00:30:12;;;;;;;20.77;9.80;;;;;;;7.00;80.14;102432.19;4995041;28;20136;-51
2021/11/10 00:32:40;;;;;;;21.65;9.68;;;;;;;6.96;80.33;102441.75;4994703;28;20038;-51
2021/11/10 00:35:08;;;;;;;21.42;9.80;;;;;;;6.95;81.06;102435.50;4994953;28;20101;-50
2021/11/10 00:37:36;;;;;;;22.33;8.98;;;;;;;6.95;81.28;102432.78;4995024;28;20042;-50
2021/11/10 00:40:04;;;;;;;22.30;9.60;;;;;;;6.93;81.07;102436.75;4994726;28;20048;-52
2021/11/10 00:42:32;;;;;;;24.83;9.25;;;;;;;6.90;81.04;102431.72;4994102;28;20056;-51
2021/11/10 00:45:00;;;;;;;19.00;9.23;;;;;;;6.85;81.42;102428.78;4995152;28;20072;-50
2021/11/10 00:47:27;;;;;;;19.55;8.88;;;;;;;6.86;80.87;102435.88;4994759;28;20042;-51
2021/11/10 00:49:55;;;;;;;16.58;7.82;;;;;;;6.88;81.88;102429.22;4994326;28;20089;-50
2021/11/10 00:52:24;;;;;;;18.27;8.48;;;;;;;6.93;80.90;102434.03;4994588;28;20050;-51
2021/11/10 00:54:53;;;;;;;16.85;8.55;;;;;;;6.93;81.53;102434.03;4994030;28;20085;-51
2021/11/10 00:57:24;;;;;;;20.58;8.48;;;;;;;6.97;81.33;102421.72;4993083;28;20047;-50
2021/11/10 00:59:52;;;;;;;18.75;8.20;;;;;;;6.95;81.15;102418.38;4992985;28;20049;-50
2021/11/10 01:02:20;;;;;;;19.55;7.95;;;;;;;6.92;80.50;102406.06;4993453;28;20038;-49
2021/11/10 01:04:48;;;;;;;19.55;8.63;;;;;;;6.90;81.02;102401.91;4994240;28;20050;-51
2021/11/10 01:07:16;;;;;;;20.30;8.25;;;;;;;6.89;81.15;102400.25;4990354;28;20051;-50
2021/11/10 01:09:46;;;;;;;23.02;8.48;;;;;;;6.90;81.19;102388.34;4990320;28;20058;-52
2021/11/10 01:12:14;;;;;;;17.67;8.10;;;;;;;6.91;80.88;102392.75;4993996;28;20050;-49
2021/11/10 01:14:43;;;;;;;19.35;8.23;;;;;;;6.91;80.78;102382.75;4993962;28;20051;-53
2021/11/10 01:17:14;;;;;;;17.40;7.45;;;;;;;6.88;80.44;102390.44;4993183;28;20042;-49
2021/11/10 01:19:41;;;;;;;18.08;8.15;;;;;;;6.86;80.55;102397.97;4992372;28;20133;-51
2021/11/10 01:22:12;;;;;;;17.13;7.93;;;;;;;6.85;80.72;102386.25;4992654;28;20038;-49
2021/11/10 01:24:40;;;;;;;20.15;7.65;;;;;;;6.80;80.18;102391.47;5009382;28;20050;-50
2021/11/10 01:27:09;;;;;;;18.90;7.90;;;;;;;6.78;80.76;102397.09;4989327;28;20051;-50
2021/11/10 01:29:40;;;;;;;16.40;7.57;;;;;;;6.77;80.70;102394.59;4982872;28;20047;-48
2021/11/10 01:32:08;;;;;;;16.10;7.80;;;;;;;6.76;80.46;102393.75;4992330;28;20053;-51
2021/11/10 01:34:37;;;;;;;16.60;7.55;;;;;;;6.75;80.44;102391.25;4992575;28;20547;-49
2021/11/10 01:37:07;;;;;;;18.92;7.70;;;;;;;6.75;80.77;102391.25;4989096;28;20075;-50
2021/11/10 01:39:35;;;;;;;21.17;8.40;;;;;;;6.75;80.71;102393.94;4983328;28;20543;-49
2021/11/10 01:42:05;;;;;;;16.67;7.90;;;;;;;6.75;80.51;102383.94;4992371;28;20073;-50
2021/11/10 01:44:38;;;;;;;19.83;7.85;;;;;;;6.76;80.43;102385.63;4992697;28;20054;-50
2021/11/10 01:47:09;;;;;;;18.48;8.48;;;;;;;6.76;80.97;102382.91;4992640;28;20046;-49
2021/11/10 01:49:40;;;;;;;17.63;8.52;;;;;;;6.77;80.34;102376.44;4991945;28;20057;-51
2021/11/10 01:52:09;;;;;;;19.40;7.88;;;;;;;6.77;80.51;102375.63;4991710;28;20154;-50
2021/11/10 01:54:39;;;;;;;21.20;8.13;;;;;;;6.78;80.37;102375.44;4991893;28;20483;-49
2021/11/10 01:57:12;;;;;;;17.73;8.18;;;;;;;6.75;80.35;102375.81;4992503;28;20050;-47
2021/11/10 01:59:43;;;;;;;19.13;8.60;;;;;;;6.74;79.62;102374.16;4992043;28;20374;-47
2021/11/10 02:02:21;;;;;;;18.13;7.70;;;;;;;6.72;80.27;102372.69;4991881;28;20046;-48
2021/11/10 02:04:57;;;;;;;17.77;8.00;;;;;;;6.69;80.56;102365.00;4991290;28;20050;-48
2021/11/10 02:07:30;;;;;;;19.17;8.20;;;;;;;6.66;79.82;102363.50;4992283;28;20561;-50
2021/11/10 02:09:58;;;;;;;17.25;8.10;;;;;;;6.57;80.74;102360.16;5007993;28;20466;-50
2021/11/10 02:12:26;;;;;;;18.13;8.25;;;;;;;6.54;80.73;102370.53;4988132;28;20043;-49
2021/11/10 02:14:58;;;;;;;18.88;8.15;;;;;;;6.53;81.29;102371.59;4989416;28;20048;-50
2021/11/10 02:17:26;;;;;;;22.70;8.38;;;;;;;6.55;81.09;102381.19;4992073;28;20038;-48
2021/11/10 02:19:57;;;;;;;18.15;8.65;;;;;;;6.57;81.03;102379.09;4988447;28;20070;-49
2021/11/10 02:22:32;;;;;;;17.42;7.95;;;;;;;6.58;80.97;102369.94;4991538;28;20050;-50
2021/11/10 02:25:01;;;;;;;18.42;8.02;;;;;;;6.54;80.37;102365.13;4991571;28;20055;-50
2021/11/10 02:27:36;;;;;;;20.85;8.35;;;;;;;6.39;80.78;102363.41;4991885;28;20054;-47
2021/11/10 02:30:06;;;;;;;17.85;8.43;;;;;;;6.33;81.36;102364.22;4992800;28;20137;-49
2021/11/10 02:32:35;;;;;;;16.58;8.07;;;;;;;6.35;81.43;102366.72;4991545;28;20042;-50
2021/11/10 02:35:04;;;;;;;20.35;8.00;;;;;;;6.37;81.44;102360.09;4989208;28;20054;-50
2021/11/10 02:37:34;;;;;;;17.10;7.38;;;;;;;6.34;81.14;102362.34;4991666;28;20053;-49
2021/11/10 02:40:03;;;;;;;21.60;8.05;;;;;;;6.29;81.19;102360.25;4992470;28;20076;-50
2021/11/10 02:42:35;;;;;;;18.65;7.50;;;;;;;6.28;81.13;102364.00;4979739;28;20042;-50
2021/11/10 02:45:03;;;;;;;18.23;8.43;;;;;;;6.26;81.42;102355.25;4991924;28;20043;-48
2021/11/10 02:47:31;;;;;;;19.17;8.00;;;;;;;6.22;81.08;102359.38;4992498;28;20050;-50
2021/11/10 02:49:58;;;;;;;16.13;7.90;;;;;;;6.17;81.53;102361.84;4992143;28;20050;-50
2021/11/10 02:52:26;;;;;;;19.60;7.43;;;;;;;6.18;82.22;102368.94;4992071;28;20386;-50
2021/11/10 02:54:54;;;;;;;17.05;8.07;;;;;;;6.19;82.22;102365.19;4992893;28;20383;-47
2021/11/10 02:57:25;;;;;;;16.45;7.82;;;;;;;6.20;81.82;102364.16;4992263;28;20453;-48
2021/11/10 02:59:53;;;;;;;17.90;7.90;;;;;;;6.24;81.62;102357.31;4991156;28;20445;-50
2021/11/10 03:02:31;;;;;;;19.85;8.40;;;;;;;6.31;82.08;102358.19;4991383;28;20073;-50
2021/11/10 03:05:05;;;;;;;15.73;7.80;;;;;;;6.33;81.38;102358.81;4990960;28;20493;-47
2021/11/10 03:07:32;;;;;;;17.67;7.10;;;;;;;6.34;80.96;102351.53;4991096;28;20054;-47
2021/11/10 03:10:05;;;;;;;18.85;8.43;;;;;;;6.34;80.65;102348.81;5005872;28;20049;-47
2021/11/10 03:12:35;;;;;;;19.65;7.75;;;;;;;6.34;80.88;102355.06;4991439;28;20069;-46
2021/11/10 03:15:03;;;;;;;18.15;7.55;;;;;;;6.30;80.84;102353.81;4990987;28;20121;-48
2021/11/10 03:17:33;;;;;;;19.02;7.70;;;;;;;6.26;81.24;102349.81;4992461;28;20141;-51
2021/11/10 03:20:06;;;;;;;19.60;8.07;;;;;;;6.25;81.39;102350.84;5000820;28;20174;-50
2021/11/10 03:22:39;;;;;;;17.50;7.78;;;;;;;6.26;81.31;102349.81;5007455;28;20047;-50
2021/11/10 03:25:07;;;;;;;17.52;7.70;;;;;;;6.29;81.02;102354.00;4993473;28;20497;-49
2021/11/10 03:27:35;;;;;;;20.38;8.13;;;;;;;6.28;81.33;102347.75;4992145;28;20589;-50
2021/11/10 03:30:08;;;;;;;17.77;8.23;;;;;;;6.28;80.80;102355.88;4995132;28;20497;-49
2021/11/10 03:32:51;;;;;;;18.88;8.35;;;;;;;6.28;80.88;102346.94;4994928;28;20074;-49
2021/11/10 03:35:19;;;;;;;20.15;8.38;;;;;;;6.27;81.23;102356.06;4994839;28;20405;-47
2021/11/10 03:37:48;;;;;;;20.10;8.15;;;;;;;6.25;80.65;102361.66;5010236;28;20045;-49
2021/11/10 03:40:19;;;;;;;16.70;7.95;;;;;;;6.17;80.77;102361.84;4995213;28;20042;-48
2021/11/10 03:42:51;;;;;;;15.85;8.10;;;;;;;6.15;81.79;102367.47;5010253;28;20057;-48
2021/11/10 03:45:24;;;;;;;19.77;8.50;;;;;;;6.18;81.68;102363.50;4982536;28;20042;-50
2021/11/10 03:47:52;;;;;;;17.20;8.00;;;;;;;6.18;81.85;102368.94;5004746;28;20438;-48
2021/11/10 03:50:20;;;;;;;15.35;7.60;;;;;;;6.15;81.03;102375.56;4993820;28;20050;-53
2021/11/10 03:52:49;;;;;;;15.40;7.80;;;;;;;6.13;81.24;102380.38;4995742;28;20058;-50
2021/11/10 03:55:18;;;;;;;20.05;8.25;;;;;;;6.14;80.90;102386.63;4998601;28;20046;-50
2021/11/10 03:57:47;;;;;;;23.35;8.40;;;;;;;6.12;81.30;102381.41;5008970;28;20046;-50
2021/11/10 04:00:15;;;;;;;15.48;7.20;;;;;;;6.10;81.34;102380.75;4995707;28;20066;-51
2021/11/10 04:02:44;;;;;;;17.33;8.48;;;;;;;6.10;80.93;102388.03;4995166;28;20066;-50
2021/11/10 04:05:22;;;;;;;17.20;8.45;;;;;;;6.11;81.21;102378.88;4990858;28;20120;-50
2021/11/10 04:07:52;;;;;;;16.90;8.27;;;;;;;6.07;81.06;102377.63;5000849;28;20073;-50
2021/11/10 04:10:21;;;;;;;23.42;8.50;;;;;;;6.06;80.92;102381.34;4993307;28;20051;-51
2021/11/10 04:12:50;;;;;;;15.68;8.27;;;;;;;6.05;81.43;102377.00;5010240;28;20043;-51
2021/11/10 04:15:21;;;;;;;17.08;7.97;;;;;;;6.05;81.50;102377.00;4989827;28;20043;-50
2021/11/10 04:17:49;;;;;;;17.23;8.57;;;;;;;6.02;81.39;102380.09;4992947;28;20405;-49
2021/11/10 04:20:17;;;;;;;19.42;8.20;;;;;;;6.01;81.42;102379.25;4993518;28;20042;-48
2021/11/10 04:22:45;;;;;;;17.67;8.35;;;;;;;6.02;81.18;102383.63;4990981;28;20042;-49
2021/11/10 04:25:13;;;;;;;17.80;8.13;;;;;;;6.00;80.67;102393.00;5002457;28;20101;-50
2021/11/10 04:27:41;;;;;;;15.65;8.20;;;;;;;5.93;81.26;102392.91;4993089;28;20085;-53
2021/11/10 04:30:11;;;;;;;19.65;8.30;;;;;;;5.91;81.21;102393.09;4994046;28;20074;-49
2021/11/10 04:32:40;;;;;;;15.50;7.50;;;;;;;5.90;81.16;102394.16;4997461;28;20097;-50
2021/11/10 04:35:09;;;;;;;17.92;8.32;;;;;;;5.90;81.07;102394.16;4989553;28;20046;-50
2021/11/10 04:37:38;;;;;;;15.55;7.88;;;;;;;5.92;81.22;102402.91;4989829;28;20501;-50
2021/11/10 04:40:09;;;;;;;17.60;8.57;;;;;;;5.92;80.75;102400.19;4995034;28;20117;-51
2021/11/10 04:42:38;;;;;;;17.70;7.85;;;;;;;5.88;81.17;102398.91;4993025;28;20050;-50
2021/11/10 04:45:10;;;;;;;20.23;8.60;;;;;;;5.86;81.51;102402.84;4994306;28;20105;-50
2021/11/10 04:47:39;;;;;;;17.35;7.85;;;;;;;5.86;81.39;102400.97;5011778;28;20050;-48
2021/11/10 04:50:08;;;;;;;17.70;7.93;;;;;;;5.88;81.25;102401.63;4994691;28;20042;-47
2021/11/10 04:52:37;;;;;;;18.73;8.55;;;;;;;5.86;81.10;102398.25;4995650;28;20065;-49
2021/11/10 04:55:06;;;;;;;18.52;8.50;;;;;;;5.86;81.21;102392.03;4995198;28;20053;-50
2021/11/10 04:57:36;;;;;;;16.15;8.15;;;;;;;5.89;81.19;102402.44;4994748;28;20512;-48
2021/11/10 05:00:05;;;;;;;18.85;8.48;;;;;;;5.88;81.26;102393.50;4994424;28;20505;-47
2021/11/10 05:02:39;;;;;;;19.08;8.70;;;;;;;5.87;80.38;102394.53;4989261;28;20406;-50
2021/11/10 05:05:12;;;;;;;20.27;8.35;;;;;;;5.85;81.16;102396.59;5005395;28;20039;-50
2021/11/10 05:07:40;;;;;;;19.02;8.45;;;;;;;5.87;81.10;102393.69;4984864;28;20519;-49
2021/11/10 05:10:10;;;;;;;18.88;8.48;;;;;;;5.85;80.90;102388.50;5009426;28;20548;-53
2021/11/10 05:12:41;;;;;;;19.60;8.88;;;;;;;5.85;80.60;102387.66;5002935;28;20405;-50
2021/11/10 05:15:11;;;;;;;16.77;8.57;;;;;;;5.81;80.58;102380.97;4992288;28;20055;-49
2021/11/10 05:17:39;;;;;;;17.30;7.78;;;;;;;5.79;80.77;102391.16;5006431;28;20390;-49
2021/11/10 05:20:10;;;;;;;16.17;7.70;;;;;;;5.77;80.75;102383.22;4989729;28;20117;-51
2021/11/10 05:22:43;;;;;;;18.20;8.35;;;;;;;5.78;80.99;102384.91;4992277;28;20065;-50
2021/11/10 05:25:10;;;;;;;16.42;7.97;;;;;;;5.80;80.24;102392.81;4993840;28;20069;-48
2021/11/10 05:27:38;;;;;;;13.63;7.32;;;;;;;5.74;80.52;102389.03;4993727;28;20026;-48
2021/11/10 05:30:07;;;;;;;16.10;8.13;;;;;;;5.71;80.40;102390.25;4993629;28;20054;-50
2021/11/10 05:32:35;;;;;;;14.30;7.78;;;;;;;5.69;80.05;102394.19;4993341;28;20531;-50
2021/11/10 05:35:04;;;;;;;15.57;8.30;;;;;;;5.66;80.36;102397.31;4993883;28;20057;-49
2021/11/10 05:37:32;;;;;;;16.73;7.70;;;;;;;5.68;80.95;102392.53;4993968;28;20046;-51
2021/11/10 05:39:59;;;;;;;17.95;8.05;;;;;;;5.69;81.32;102396.91;4993857;28;20512;-50
2021/11/10 05:42:27;;;;;;;17.83;8.93;;;;;;;5.73;80.69;102392.78;4993830;28;20042;-48
2021/11/10 05:44:55;;;;;;;18.92;8.57;;;;;;;5.75;80.38;102388.84;4992698;28;20049;-51
2021/11/10 05:47:24;;;;;;;15.80;7.88;;;;;;;5.73;80.17;102388.19;4992265;28;20461;-50
2021/11/10 05:49:52;;;;;;;16.73;8.05;;;;;;;5.69;80.26;102381.50;4993609;28;20039;-51
2021/11/10 05:52:20;;;;;;;19.77;9.23;;;;;;;5.66;80.25;102387.31;4993000;28;20137;-46
2021/11/10 05:54:48;;;;;;;18.25;8.23;;;;;;;5.65;80.23;102382.97;4993239;28;20129;-50
2021/11/10 05:57:17;;;;;;;16.42;8.80;;;;;;;5.58;80.36;102373.09;4992980;28;20050;-50
2021/11/10 05:59:45;;;;;;;20.92;8.75;;;;;;;5.55;80.21;102363.50;4993362;28;20070;-52
2021/11/10 06:02:13;;;;;;;19.48;8.45;;;;;;;5.52;81.11;102359.34;4992631;28;20073;-50
2021/11/10 06:04:43;;;;;;;17.52;8.88;;;;;;;5.55;80.57;102366.22;4993415;28;20056;-50
2021/11/10 06:07:11;;;;;;;16.73;8.32;;;;;;;5.54;80.62;102357.28;4991783;28;20462;-47
2021/11/10 06:09:39;;;;;;;15.43;7.88;;;;;;;5.56;80.71;102370.59;4993311;28;20065;-49
2021/11/10 06:12:08;;;;;;;15.75;8.18;;;;;;;5.60;80.70;102361.03;4979479;28;20052;-51
2021/11/10 06:14:36;;;;;;;16.80;8.63;;;;;;;5.60;80.58;102361.03;4993047;28;20042;-50
2021/11/10 06:17:04;;;;;;;17.27;8.32;;;;;;;5.59;80.50;102362.09;4992179;28;20042;-49
2021/11/10 06:19:32;;;;;;;15.15;8.45;;;;;;;5.60;80.59;102357.50;4988576;28;20043;-50
2021/11/10 06:22:00;;;;;;;14.82;7.68;;;;;;;5.55;80.03;102367.03;4993043;28;20049;-48
2021/11/10 06:24:28;;;;;;;15.88;8.23;;;;;;;5.49;80.38;102375.97;4993115;28;20112;-50
2021/11/10 06:26:55;;;;;;;18.90;8.68;;;;;;;5.49;80.76;102375.97;5008199;28;20044;-50
2021/11/10 06:29:23;;;;;;;15.82;8.45;;;;;;;5.50;80.94;102377.63;4988402;28;20038;-50
2021/11/10 06:31:52;;;;;;;14.98;8.70;;;;;;;5.53;80.73;102371.84;4992346;28;20145;-50
2021/11/10 06:34:20;;;;;;;19.00;8.70;;;;;;;5.55;81.04;102368.91;4992780;28;20050;-49
2021/11/10 06:36:47;;;;;;;16.65;8.63;;;;;;;5.52;80.44;102356.63;4992408;28;20069;-50
2021/11/10 06:39:16;;;;;;;16.48;8.73;;;;;;;5.49;81.13;102362.44;4992425;28;20054;-49
2021/11/10 06:41:45;;;;;;;16.15;8.32;;;;;;;5.51;80.99;102376.59;4991203;28;20386;-48
2021/11/10 06:44:13;;;;;;;26.05;8.70;;;;;;;5.52;80.97;102386.38;4991504;28;20519;-46
2021/11/10 06:46:40;;;;;;;18.10;7.95;;;;;;;5.54;81.24;102370.78;4992474;28;20109;-51
2021/11/10 06:49:08;;;;;;;18.67;8.68;;;;;;;5.57;80.62;102372.28;4990835;28;20066;-48
2021/11/10 06:51:36;;;;;;;15.63;8.05;;;;;;;5.57;80.77;102366.84;4992330;28;20564;-54
2021/11/10 06:54:04;;;;;;;17.17;8.77;;;;;;;5.58;80.56;102368.53;4992646;28;20066;-49
2021/11/10 06:56:32;;;;;;;15.70;8.13;;;;;;;5.58;80.27;102362.28;4992295;28;20038;-48
2021/11/10 06:59:00;;;;;;;17.60;8.30;;;;;;;5.58;80.42;102373.09;4991724;28;20038;-51
2021/11/10 07:01:27;;;;;;;18.38;8.40;;;;;;;5.57;80.39;102380.38;4996511;28;20046;-50
2021/11/10 07:03:55;;;;;;;16.35;8.27;;;;;;;5.57;80.37;102382.25;4996430;28;20042;-50
2021/11/10 07:06:23;;;;;;;15.43;7.93;;;;;;;5.59;80.61;102377.50;4996586;28;20125;-50
2021/11/10 07:08:50;;;;;;;15.23;8.10;;;;;;;5.61;80.79;102367.31;4995939;28;20462;-51
2021/11/10 07:11:18;;;;;;;14.65;8.00;;;;;;;5.60;80.41;102360.22;4996483;28;20169;-50
2021/11/10 07:13:47;;;;;;;14.63;8.05;;;;;;;5.57;80.57;102390.38;4995968;28;20093;-50
2021/11/10 07:16:15;;;;;;;18.40;8.80;;;;;;;5.57;80.01;102412.00;4996451;28;20053;-50
2021/11/10 07:18:44;;;;;;;19.25;9.63;;;;;;;5.43;80.35;102414.56;4995458;28;20075;-48
2021/11/10 07:21:12;;;;;;;14.55;8.23;;;;;;;5.41;80.97;102416.66;4648636;28;10000627;-50
2021/11/10 07:23:41;;;;;;;17.58;8.68;;;;;;;5.43;81.06;102402.94;4994279;28;20061;-50
2021/11/10 07:26:08;;;;;;;15.70;8.60;;;;;;;5.47;81.31;102409.63;4992160;28;20073;-51
2021/11/10 07:28:36;;;;;;;15.80;7.78;;;;;;;5.52;81.16;102408.00;4985476;28;20161;-47
2021/11/10 07:31:04;;;;;;;21.42;8.52;;;;;;;5.54;80.79;102403.25;4993158;28;20497;-48
2021/11/10 07:33:32;;;;;;;16.05;8.02;;;;;;;5.54;80.83;102397.00;4988394;28;20080;-51
2021/11/10 07:36:00;;;;;;;16.40;8.52;;;;;;;5.56;80.70;102397.66;4993444;28;20105;-50
2021/11/10 07:38:28;;;;;;;17.05;8.15;;;;;;;5.57;80.74;102399.31;4992884;28;20044;-51
2021/11/10 07:40:57;;;;;;;15.93;8.93;;;;;;;5.55;80.91;102407.59;4993364;28;20054;-53
2021/11/10 07:43:28;;;;;;;16.23;8.95;;;;;;;5.62;81.23;102412.25;4993425;28;20081;-51
2021/11/10 07:46:01;;;;;;;16.38;8.88;;;;;;;5.66;81.39;102403.53;4990082;28;20042;-48
2021/11/10 07:48:29;;;;;;;19.00;8.65;;;;;;;5.68;81.43;102414.16;4987754;28;20050;-50
2021/11/10 07:53:50;;;;;;;17.98;8.75;;;;;;;5.77;81.11;102415.66;5062393;28;20366;-52
2021/11/10 07:56:18;;;;;;;18.58;10.10;;;;;;;5.80;80.96;102417.16;5046180;28;20684;-53
2021/11/10 07:58:46;;;;;;;18.05;9.88;;;;;;;5.81;81.02;102410.72;5046486;28;20042;-48
2021/11/10 08:01:14;;;;;;;18.98;8.30;;;;;;;5.84;81.01;102418.44;5047427;28;20454;-51
2021/11/10 08:03:42;;;;;;;17.40;8.32;;;;;;;5.87;80.85;102420.72;5048879;28;20068;-50
2021/11/10 08:06:10;;;;;;;17.73;9.60;;;;;;;5.87;80.72;102421.59;5048794;28;20065;-52
2021/11/10 08:08:38;;;;;;;16.27;8.77;;;;;;;5.86;80.85;102414.50;5048576;28;20080;-52
2021/11/10 08:11:06;;;;;;;16.38;8.15;;;;;;;5.86;80.94;102417.19;5048388;28;20041;-52
2021/11/10 08:13:33;;;;;;;15.57;9.15;;;;;;;5.87;81.17;102415.31;5048575;28;20566;-51
2021/11/10 08:16:02;;;;;;;15.35;8.70;;;;;;;5.90;81.36;102428.47;5048976;28;20128;-49
2021/11/10 08:18:30;;;;;;;19.83;9.50;;;;;;;5.89;81.21;102429.50;5048731;28;20043;-51
2021/11/10 08:20:58;;;;;;;17.77;9.10;;;;;;;5.92;81.30;102431.81;5048190;28;20071;-51
2021/11/10 08:23:26;;;;;;;18.25;9.45;;;;;;;5.92;80.93;102424.53;5047896;28;20873;-51
2021/11/10 08:25:56;;;;;;;18.92;10.77;;;;;;;5.92;81.48;102418.31;5048035;28;20057;-53
2021/11/10 08:28:25;;;;;;;18.58;8.85;;;;;;;5.95;81.33;102420.63;5048170;28;20053;-46
2021/11/10 08:30:53;;;;;;;14.90;8.32;;;;;;;5.99;81.46;102419.22;5048430;28;20116;-51
2021/11/10 08:33:27;;;;;;;17.25;9.57;;;;;;;6.01;80.76;102405.47;5047531;28;20033;-50
2021/11/10 08:35:55;;;;;;;17.65;9.38;;;;;;;6.01;81.13;102405.47;5048548;28;20072;-50
2021/11/10 08:38:28;;;;;;;16.98;9.30;;;;;;;6.03;81.15;102406.13;5047778;28;20136;-52
2021/11/10 08:40:57;;;;;;;20.27;8.98;;;;;;;6.05;81.08;102399.47;5047893;28;20068;-53
2021/11/10 08:43:25;;;;;;;25.02;11.13;;;;;;;6.04;81.14;102397.81;5047890;28;20041;-51
2021/11/10 08:45:55;;;;;;;18.70;10.20;;;;;;;6.06;81.18;102397.59;5048426;28;20075;-51
2021/11/10 08:48:24;;;;;;;19.02;9.80;;;;;;;6.06;81.40;102398.44;5047229;28;20060;-49
2021/11/10 08:50:53;;;;;;;21.73;11.02;;;;;;;6.06;81.60;102403.00;5048044;28;20419;-50
2021/11/10 08:53:22;;;;;;;21.85;10.80;;;;;;;6.09;82.08;102413.44;5047100;28;20041;-51
2021/11/10 08:55:53;;;;;;;21.83;11.05;;;;;;;6.08;81.65;102423.41;5047888;28;20037;-50
2021/11/10 08:58:21;;;;;;;24.77;11.38;;;;;;;6.06;82.08;102411.13;5047969;28;20034;-51
2021/11/10 09:00:49;;;;;;;28.63;12.00;;;;;;;6.04;82.14;102413.19;5047910;28;20099;-52
2021/11/10 09:03:18;;;;;;;22.85;10.77;;;;;;;6.05;82.52;102417.56;5043875;28;20049;-48
2021/11/10 09:05:46;;;;;;;21.98;11.40;;;;;;;6.08;82.67;102412.59;5034864;28;20049;-48
2021/11/10 09:08:13;;;;;;;20.42;11.65;;;;;;;6.14;82.54;102410.97;5034208;28;20100;-51
2021/11/10 09:10:42;;;;;;;19.63;10.98;;;;;;;6.20;81.98;102412.88;5034600;28;20042;-49
2021/11/10 09:13:10;;;;;;;19.20;10.00;;;;;;;6.23;82.20;102407.06;5034310;28;20030;-47
2021/11/10 09:15:42;;;;;;;19.77;11.05;;;;;;;6.27;81.86;102411.03;5034736;28;20048;-50
2021/11/10 09:18:10;;;;;;;24.58;11.45;;;;;;;6.29;82.01;102408.97;5034255;28;20562;-51
2021/11/10 09:20:39;;;;;;;23.92;12.45;;;;;;;6.32;81.72;102397.72;5033545;28;20053;-48
2021/11/10 09:23:08;;;;;;;19.58;10.07;;;;;;;6.34;82.36;102401.06;5034306;28;20041;-48
2021/11/10 09:25:37;;;;;;;24.90;11.10;;;;;;;6.40;82.81;102407.56;5032882;28;20504;-48
2021/11/10 09:28:09;;;;;;;23.40;10.60;;;;;;;6.43;82.92;102415.28;5034331;28;20041;-52
2021/11/10 09:30:39;;;;;;;22.38;11.38;;;;;;;6.44;83.17;102403.41;5034242;28;20049;-49
2021/11/10 09:33:08;;;;;;;25.95;11.20;;;;;;;6.55;84.48;102412.84;5034416;28;20042;-51
2021/11/10 09:35:37;;;;;;;26.13;11.88;;;;;;;6.55;83.83;102402.84;5034288;28;20550;-50
2021/11/10 09:38:05;;;;;;;20.65;9.90;;;;;;;6.55;84.10;102408.25;5034061;28;20049;-51
2021/11/10 09:40:37;;;;;;;26.92;12.82;;;;;;;6.54;84.00;102394.91;5033890;28;20041;-49
2021/11/10 09:43:07;;;;;;;28.05;12.77;;;;;;;6.53;84.91;102404.09;5034123;28;20510;-49
2021/11/10 09:45:36;;;;;;;22.98;10.73;;;;;;;6.59;85.18;102409.53;5034439;28;20132;-50
2021/11/10 09:48:06;;;;;;;27.67;12.05;;;;;;;6.62;85.33;102411.00;5033871;28;20538;-51
2021/11/10 09:50:39;;;;;;;25.17;12.40;;;;;;;6.64;85.51;102416.19;5033344;28;20073;-51
2021/11/10 09:53:07;;;;;;;22.67;11.77;;;;;;;6.66;85.28;102419.53;5033804;28;20049;-51
2021/11/10 09:55:35;;;;;;;24.40;12.93;;;;;;;6.67;85.06;102422.06;5034218;28;20051;-50
2021/11/10 09:58:03;;;;;;;25.63;12.35;;;;;;;6.69;85.28;102413.75;5033885;28;20045;-52
2021/11/10 10:00:36;;;;;;;23.48;12.95;;;;;;;6.71;85.78;102408.94;5033607;28;20045;-51
2021/11/10 10:03:04;;;;;;;24.05;12.57;;;;;;;6.74;85.95;102405.84;5033831;28;20041;-51
2021/11/10 10:05:33;;;;;;;26.30;13.43;;;;;;;6.77;85.98;102410.84;5032653;28;20233;-49
2021/11/10 10:08:03;;;;;;;29.02;13.45;;;;;;;6.81;85.09;102412.94;5033542;28;20044;-48
2021/11/10 10:10:31;;;;;;;30.65;14.50;;;;;;;6.83;85.60;102410.00;5033715;28;20041;-52
2021/11/10 10:13:00;;;;;;;22.75;11.63;;;;;;;6.86;85.64;102406.91;5035055;28;20037;-51
2021/11/10 10:15:31;;;;;;;24.63;12.02;;;;;;;6.94;85.55;102405.88;5032501;28;20034;-51
2021/11/10 10:17:59;;;;;;;29.80;14.70;;;;;;;6.98;85.64;102413.41;5040515;28;20140;-49
2021/11/10 10:20:31;;;;;;;23.27;13.40;;;;;;;6.98;85.52;102416.13;5033343;28;20063;-53
2021/11/10 10:23:09;;;;;;;20.67;10.32;;;;;;;7.02;85.33;102424.66;5032741;28;20407;-51
2021/11/10 10:25:38;;;;;;;24.10;11.98;;;;;;;7.07;85.86;102416.78;5033368;28;20072;-49
2021/11/10 10:28:07;;;;;;;22.35;11.30;;;;;;;7.09;85.51;102414.66;5031903;28;20384;-50
2021/11/10 10:30:45;;;;;;;24.17;11.23;;;;;;;7.14;85.57;102416.75;5033424;28;20125;-50
2021/11/10 10:33:19;;;;;;;23.58;11.32;;;;;;;7.18;86.16;102418.84;5032983;28;20045;-48
2021/11/10 10:36:11;;;;;;;22.80;10.20;;;;;;;7.24;87.06;102428.06;5032753;28;20492;-50
2021/11/10 10:38:44;;;;;;;20.75;9.90;;;;;;;7.30;87.59;102426.38;5033015;28;20068;-51
2021/11/10 10:41:11;;;;;;;23.90;11.50;;;;;;;7.32;86.66;102422.44;5032668;28;20222;-52
2021/11/10 10:43:46;;;;;;;23.75;10.63;;;;;;;7.32;85.71;102418.88;5032937;28;20058;-51
2021/11/10 10:46:16;;;;;;;20.70;10.77;;;;;;;7.34;86.29;102414.09;5032807;28;20538;-50
2021/11/10 10:48:44;;;;;;;18.23;9.93;;;;;;;7.37;85.68;102410.97;5032532;28;20053;-50
2021/11/10 10:51:17;;;;;;;19.90;11.02;;;;;;;7.37;86.05;102421.81;5019505;28;20048;-50
2021/11/10 10:53:52;;;;;;;20.95;10.90;;;;;;;7.40;86.02;102424.09;5031798;28;20060;-51
2021/11/10 10:56:34;;;;;;;22.65;9.93;;;;;;;7.47;87.24;102422.22;5020283;28;20049;-52
2021/11/10 10:59:09;;;;;;;22.60;11.70;;;;;;;7.48;86.43;102423.91;5032803;28;20053;-45
2021/11/10 11:01:45;;;;;;;21.98;11.38;;;;;;;7.50;87.05;102424.50;5032666;28;20037;-47
2021/11/10 11:04:19;;;;;;;20.95;10.50;;;;;;;7.53;87.09;102418.69;5032166;28;20132;-46
2021/11/10 11:06:58;;;;;;;21.85;11.32;;;;;;;7.55;87.01;102418.47;5032119;28;20049;-45
2021/11/10 11:09:32;;;;;;;22.67;11.77;;;;;;;7.59;88.41;102412.41;5032635;28;20037;-48
2021/11/10 11:12:15;;;;;;;26.45;12.07;;;;;;;7.59;86.75;102406.16;5032181;28;20037;-45
2021/11/10 11:14:46;;;;;;;26.23;14.05;;;;;;;7.59;86.99;102400.75;5031680;28;20519;-47
2021/11/10 11:17:25;;;;;;;25.90;12.80;;;;;;;7.58;87.04;102396.38;5027886;28;20041;-46
2021/11/10 11:19:57;;;;;;;20.92;10.75;;;;;;;7.61;86.38;102385.94;5031845;28;20053;-43
2021/11/10 11:22:30;;;;;;;25.77;13.18;;;;;;;7.61;86.15;102385.09;5032451;28;20053;-46
2021/11/10 11:25:12;;;;;;;25.35;11.80;;;;;;;7.61;86.71;102369.66;5032234;28;20045;-47
2021/11/10 11:27:52;;;;;;;20.42;9.70;;;;;;;7.72;88.95;102370.06;5031987;28;20073;-44
2021/11/10 11:30:20;;;;;;;26.15;13.55;;;;;;;7.73;87.84;102380.69;5031131;28;20080;-44
2021/11/10 11:32:50;;;;;;;28.70;13.07;;;;;;;7.68;87.59;102373.19;5031753;28;20041;-48
2021/11/10 11:35:27;;;;;;;24.17;13.63;;;;;;;7.67;87.19;102373.38;5032068;28;20038;-48
2021/11/10 11:37:55;;;;;;;;;;;;;;;7.67;87.62;102379.69;5032508;28;20440;-47